Airfield :
LOGIN :

Register | Disclaimer

   EN    FR    IT 

 










Legend :    VFR   Marginal VFR   IFR   Intensive IFR   Very Intensive IFR
Visi :
Ceiling :
>= 8 km
>= 3000ft
5 to 8 km
1000 to 3000 ft
1500m to 5 km
500 to 1000 ft
800 to 1500m
200 to 500 ft
< 800m
< 200 ft
Symbols :   Thunderstorms  Fog  Heavy snow  Heavy precipitations  Wind > 20 kt
SIGMETs :     Misc.  Thunderstorms  Icing  Turbulence  Mountain Waves  Volcanic Ashes






- Airport Elevation : 885 ft
- IATA code : BAS


LFSB - Bale-Mulhouse

CURRENT METAR :
  • 070730Z VRB02KT CAVOK 20/10 Q1024 NOSIG

EXPIRED METARs :
  • 070700Z 15003KT 110V200 CAVOK 19/09 Q1023 NOSIG
  • 070630Z VRB03KT CAVOK 18/10 Q1024 NOSIG
  • 070600Z 17003KT 140V210 CAVOK 16/11 Q1024 NOSIG
  • 070530Z 17003KT 140V210 CAVOK 15/11 Q1023 NOSIG
  • 070500Z 22003KT CAVOK 13/11 Q1023 NOSIG

TAF TAF LFSB
Valid from the 07 at 06:00 until the 08 at 06:00 UTC


070500Z 0706/0806 VRB03KT CAVOK
BECMG 0708/0711 28010KT BKN050
BECMG 0714/0716 36008KT
Met : +33 3 89 90 31 11



MET'MAP, your aeronautical weather chart ! - Copyright ORBIFLY December 2007 - Disclaimer

ORBIFLY MET'MAP TEAM :

Programming & Development : Alexandra Zaïnal
Original concept : Baudouin d'Aumeries
Technical & hardware support : Manuel Goepfert
Assistance : Marc-Olivier Méhu




SOURCES & CREDITS :

   NOAA